createdAt,value
2022-08-23T00:08:05.424Z,75.65
2022-08-23T00:18:26.992Z,74.80
2022-08-23T00:28:49.806Z,73.01
2022-08-23T00:39:12.349Z,73.10
2022-08-23T00:49:37.271Z,71.35
2022-08-23T00:59:58.824Z,70.24
2022-08-23T01:10:42.021Z,70.82
2022-08-23T01:21:10.376Z,70.31
2022-08-23T01:31:33.417Z,68.19
2022-08-23T01:41:55.392Z,70.09
2022-08-23T01:52:17.249Z,70.40
2022-08-23T02:02:39.015Z,68.92
2022-08-23T02:13:00.538Z,69.92
2022-08-23T02:23:23.005Z,70.19
2022-08-23T02:33:44.529Z,70.72
2022-08-23T02:44:06.324Z,70.29
2022-08-23T02:54:27.837Z,70.63
2022-08-23T03:04:49.453Z,70.17
2022-08-23T03:15:11.683Z,70.22
2022-08-23T03:25:33.274Z,72.43
2022-08-23T03:35:59.574Z,72.63
2022-08-23T03:46:24.037Z,74.23
2022-08-23T03:57:00.493Z,74.04
2022-08-23T04:07:22.239Z,74.68
2022-08-23T04:17:43.793Z,74.26
2022-08-23T04:28:06.161Z,75.52
2022-08-23T04:38:27.958Z,75.93
2022-08-23T04:48:49.613Z,75.01
2022-08-23T04:59:13.219Z,75.56
2022-08-23T05:09:34.838Z,75.26
2022-08-23T05:19:56.455Z,76.05
2022-08-23T05:30:18.101Z,75.30
2022-08-23T05:40:39.738Z,75.21
2022-08-23T05:51:16.820Z,76.41
2022-08-23T06:01:39.318Z,76.76
2022-08-23T06:12:01.247Z,74.92
2022-08-23T06:22:23.455Z,75.92
2022-08-23T06:32:45.036Z,73.90
2022-08-23T06:43:06.583Z,73.89
2022-08-23T06:53:29.198Z,73.05
2022-08-23T07:03:57.967Z,73.15
2022-08-23T07:14:22.592Z,71.66
2022-08-23T07:24:44.183Z,71.60
2022-08-23T07:35:06.428Z,70.37
2022-08-23T07:45:27.998Z,69.99
2022-08-23T07:55:49.687Z,68.30
2022-08-23T08:06:15.901Z,64.37
2022-08-23T08:16:42.251Z,64.88
2022-08-23T08:27:04.010Z,63.52
2022-08-23T08:37:27.324Z,60.43
2022-08-23T08:47:53.208Z,58.78
2022-08-23T08:58:26.623Z,58.31
2022-08-23T09:09:11.250Z,58.12
2022-08-23T09:19:37.065Z,55.12
2022-08-23T09:30:01.165Z,56.96
2022-08-23T09:40:45.163Z,56.07
2022-08-23T09:51:19.021Z,57.32
2022-08-23T10:01:40.686Z,52.27
2022-08-23T10:12:02.926Z,48.39
2022-08-23T10:22:29.271Z,48.88
2022-08-23T10:33:07.344Z,49.10
2022-08-23T10:43:56.825Z,44.67
2022-08-23T10:54:59.725Z,44.27
2022-08-23T11:05:21.627Z,44.04
2022-08-23T11:15:45.423Z,44.69
2022-08-23T11:26:09.960Z,43.64
2022-08-23T11:36:33.521Z,41.87
2022-08-23T11:46:55.798Z,40.89
2022-08-23T11:57:45.111Z,41.15
2022-08-23T12:08:07.096Z,40.51
2022-08-23T12:18:31.059Z,40.24
2022-08-23T12:28:58.725Z,39.52
2022-08-23T12:39:26.968Z,40.98
2022-08-23T12:50:16.065Z,40.82
2022-08-23T13:01:06.403Z,41.06
2022-08-23T13:11:32.635Z,39.28
2022-08-23T13:22:14.477Z,39.12
2022-08-23T13:32:41.652Z,39.83
2022-08-23T13:43:10.044Z,38.25
2022-08-23T13:53:31.688Z,39.70
2022-08-23T14:03:58.604Z,39.74
2022-08-23T14:14:20.460Z,39.74
2022-08-23T14:24:42.209Z,43.43
2022-08-23T14:35:04.674Z,41.46
2022-08-23T14:45:26.374Z,43.53
2022-08-23T14:56:01.174Z,38.51
2022-08-23T15:06:31.608Z,40.43
2022-08-23T15:16:53.274Z,39.76
2022-08-23T15:27:14.834Z,36.64
2022-08-23T15:37:36.774Z,39.09
2022-08-23T15:48:01.129Z,37.24
2022-08-23T15:58:25.671Z,36.99
2022-08-23T16:08:52.313Z,39.89
2022-08-23T16:19:16.832Z,39.52
2022-08-23T16:29:40.886Z,39.06
2022-08-23T16:40:06.765Z,36.34
2022-08-23T16:50:28.497Z,38.62
2022-08-23T17:00:50.589Z,39.39
2022-08-23T17:11:18.362Z,43.02
2022-08-23T17:21:41.929Z,39.27
2022-08-23T17:32:03.829Z,44.00
2022-08-23T17:42:25.389Z,43.58
2022-08-23T17:52:46.932Z,44.80
2022-08-23T18:03:08.554Z,45.13
2022-08-23T18:13:30.140Z,45.63
2022-08-23T18:23:59.018Z,45.54
2022-08-23T18:34:20.591Z,46.74
2022-08-23T18:44:42.593Z,48.60
2022-08-23T18:55:05.387Z,45.99
2022-08-23T19:05:27.024Z,45.12
2022-08-23T19:16:04.398Z,47.73
2022-08-23T19:26:34.321Z,48.25
2022-08-23T19:37:01.099Z,49.41
2022-08-23T19:47:26.548Z,48.15
2022-08-23T19:57:54.395Z,48.80
2022-08-23T20:08:15.963Z,50.50
2022-08-23T20:18:37.570Z,48.66
2022-08-23T20:29:00.501Z,49.53
2022-08-23T20:39:24.106Z,49.74
2022-08-23T20:49:46.169Z,50.43
2022-08-23T21:00:08.565Z,50.39
2022-08-23T21:10:30.158Z,51.63
2022-08-23T21:20:52.168Z,49.50
2022-08-23T21:31:23.254Z,52.40
2022-08-23T21:41:45.741Z,52.41
2022-08-23T21:52:07.426Z,50.33
2022-08-23T22:02:29.040Z,50.39
2022-08-23T22:12:50.772Z,51.22
2022-08-23T22:23:12.306Z,49.68
2022-08-23T22:33:35.154Z,51.36
2022-08-23T22:43:59.280Z,52.40
2022-08-23T22:54:21.114Z,51.95
2022-08-23T23:04:42.655Z,56.17
2022-08-23T23:15:04.977Z,54.02
2022-08-23T23:25:26.559Z,53.24
2022-08-23T23:35:48.903Z,55.08
2022-08-23T23:46:13.343Z,55.15
2022-08-23T23:56:34.932Z,52.73
